sensor_id;sensor_type;location;lat;lon;timestamp;P1;durP1;ratioP1;P2;durP2;ratioP2
10471;SDS011;5283;48.876;8.962;2023-08-06T00:00:53;10.77;;;7.03;;
10471;SDS011;5283;48.876;8.962;2023-08-06T00:03:20;10.77;;;7.50;;
10471;SDS011;5283;48.876;8.962;2023-08-06T00:05:46;8.90;;;7.10;;
10471;SDS011;5283;48.876;8.962;2023-08-06T00:08:13;9.43;;;7.03;;
10471;SDS011;5283;48.876;8.962;2023-08-06T00:10:40;10.77;;;7.53;;
10471;SDS011;5283;48.876;8.962;2023-08-06T00:13:07;10.60;;;6.90;;
10471;SDS011;5283;48.876;8.962;2023-08-06T00:15:34;12.40;;;7.83;;
10471;SDS011;5283;48.876;8.962;2023-08-06T00:18:01;9.30;;;7.40;;
10471;SDS011;5283;48.876;8.962;2023-08-06T00:20:28;9.43;;;7.53;;
10471;SDS011;5283;48.876;8.962;2023-08-06T00:22:54;9.77;;;7.53;;
10471;SDS011;5283;48.876;8.962;2023-08-06T00:25:21;9.83;;;7.60;;
10471;SDS011;5283;48.876;8.962;2023-08-06T00:27:48;10.93;;;7.00;;
10471;SDS011;5283;48.876;8.962;2023-08-06T00:30:14;8.47;;;7.50;;
10471;SDS011;5283;48.876;8.962;2023-08-06T00:32:41;10.77;;;7.40;;
10471;SDS011;5283;48.876;8.962;2023-08-06T00:35:08;8.13;;;7.33;;
10471;SDS011;5283;48.876;8.962;2023-08-06T00:37:35;8.90;;;7.70;;
10471;SDS011;5283;48.876;8.962;2023-08-06T00:40:02;10.00;;;7.27;;
10471;SDS011;5283;48.876;8.962;2023-08-06T00:42:28;10.17;;;8.43;;
10471;SDS011;5283;48.876;8.962;2023-08-06T00:44:55;9.13;;;8.00;;
10471;SDS011;5283;48.876;8.962;2023-08-06T00:47:22;9.80;;;8.07;;
10471;SDS011;5283;48.876;8.962;2023-08-06T00:49:49;10.93;;;8.47;;
10471;SDS011;5283;48.876;8.962;2023-08-06T00:52:16;13.57;;;9.10;;
10471;SDS011;5283;48.876;8.962;2023-08-06T00:54:43;10.33;;;8.60;;
10471;SDS011;5283;48.876;8.962;2023-08-06T00:57:09;12.20;;;8.40;;
10471;SDS011;5283;48.876;8.962;2023-08-06T00:59:37;10.43;;;9.00;;
10471;SDS011;5283;48.876;8.962;2023-08-06T01:02:04;10.43;;;9.33;;
10471;SDS011;5283;48.876;8.962;2023-08-06T01:04:31;11.70;;;8.70;;
10471;SDS011;5283;48.876;8.962;2023-08-06T01:12:48;13.57;;;9.47;;
10471;SDS011;5283;48.876;8.962;2023-08-06T01:15:35;11.40;;;9.40;;
10471;SDS011;5283;48.876;8.962;2023-08-06T01:18:07;13.20;;;9.87;;
10471;SDS011;5283;48.876;8.962;2023-08-06T01:20:34;11.03;;;9.77;;
10471;SDS011;5283;48.876;8.962;2023-08-06T01:23:01;12.97;;;9.47;;
10471;SDS011;5283;48.876;8.962;2023-08-06T01:25:30;14.63;;;9.73;;
10471;SDS011;5283;48.876;8.962;2023-08-06T01:28:48;10.80;;;9.67;;
10471;SDS011;5283;48.876;8.962;2023-08-06T01:31:00;10.97;;;9.60;;
10471;SDS011;5283;48.876;8.962;2023-08-06T01:33:31;13.53;;;9.80;;
10471;SDS011;5283;48.876;8.962;2023-08-06T01:36:00;11.17;;;9.80;;
10471;SDS011;5283;48.876;8.962;2023-08-06T01:38:28;13.33;;;9.93;;
10471;SDS011;5283;48.876;8.962;2023-08-06T01:40:55;11.77;;;9.57;;
10471;SDS011;5283;48.876;8.962;2023-08-06T01:43:22;13.70;;;10.00;;
10471;SDS011;5283;48.876;8.962;2023-08-06T01:45:48;10.87;;;9.77;;
10471;SDS011;5283;48.876;8.962;2023-08-06T01:48:15;13.93;;;10.93;;
10471;SDS011;5283;48.876;8.962;2023-08-06T01:50:41;11.77;;;10.53;;
10471;SDS011;5283;48.876;8.962;2023-08-06T01:53:08;12.87;;;10.87;;
10471;SDS011;5283;48.876;8.962;2023-08-06T01:55:35;13.57;;;10.93;;
10471;SDS011;5283;48.876;8.962;2023-08-06T01:58:02;11.53;;;10.33;;
10471;SDS011;5283;48.876;8.962;2023-08-06T02:00:28;13.27;;;11.03;;
10471;SDS011;5283;48.876;8.962;2023-08-06T02:02:55;14.83;;;10.83;;
10471;SDS011;5283;48.876;8.962;2023-08-06T02:05:22;13.97;;;11.53;;
10471;SDS011;5283;48.876;8.962;2023-08-06T02:07:48;14.00;;;11.60;;
10471;SDS011;5283;48.876;8.962;2023-08-06T02:10:15;14.87;;;12.47;;
10471;SDS011;5283;48.876;8.962;2023-08-06T02:12:42;13.47;;;12.03;;
10471;SDS011;5283;48.876;8.962;2023-08-06T02:15:08;15.67;;;11.27;;
10471;SDS011;5283;48.876;8.962;2023-08-06T02:17:35;13.63;;;11.30;;
10471;SDS011;5283;48.876;8.962;2023-08-06T02:20:02;14.57;;;11.30;;
10471;SDS011;5283;48.876;8.962;2023-08-06T02:22:29;15.33;;;11.57;;
10471;SDS011;5283;48.876;8.962;2023-08-06T02:24:55;13.40;;;11.07;;
10471;SDS011;5283;48.876;8.962;2023-08-06T02:27:22;14.13;;;10.30;;
10471;SDS011;5283;48.876;8.962;2023-08-06T02:29:49;12.40;;;10.80;;
10471;SDS011;5283;48.876;8.962;2023-08-06T02:32:15;12.67;;;10.43;;
10471;SDS011;5283;48.876;8.962;2023-08-06T02:34:42;16.50;;;10.20;;
10471;SDS011;5283;48.876;8.962;2023-08-06T02:37:09;15.30;;;11.10;;
10471;SDS011;5283;48.876;8.962;2023-08-06T02:39:35;12.77;;;9.93;;
10471;SDS011;5283;48.876;8.962;2023-08-06T02:42:08;13.53;;;10.83;;
10471;SDS011;5283;48.876;8.962;2023-08-06T02:44:35;11.67;;;10.00;;
10471;SDS011;5283;48.876;8.962;2023-08-06T02:47:01;12.60;;;10.63;;
10471;SDS011;5283;48.876;8.962;2023-08-06T02:49:28;15.43;;;10.47;;
10471;SDS011;5283;48.876;8.962;2023-08-06T02:51:55;11.80;;;10.23;;
10471;SDS011;5283;48.876;8.962;2023-08-06T02:54:21;12.10;;;9.60;;
10471;SDS011;5283;48.876;8.962;2023-08-06T02:56:48;11.73;;;9.60;;
10471;SDS011;5283;48.876;8.962;2023-08-06T02:59:15;14.03;;;9.73;;
10471;SDS011;5283;48.876;8.962;2023-08-06T03:01:41;13.03;;;9.43;;
10471;SDS011;5283;48.876;8.962;2023-08-06T03:04:08;13.47;;;9.97;;
10471;SDS011;5283;48.876;8.962;2023-08-06T03:06:35;13.50;;;9.50;;
10471;SDS011;5283;48.876;8.962;2023-08-06T03:09:01;12.70;;;9.57;;
10471;SDS011;5283;48.876;8.962;2023-08-06T03:11:28;11.50;;;9.43;;
10471;SDS011;5283;48.876;8.962;2023-08-06T03:13:55;13.10;;;9.03;;
10471;SDS011;5283;48.876;8.962;2023-08-06T03:16:21;12.30;;;9.10;;
10471;SDS011;5283;48.876;8.962;2023-08-06T03:18:48;11.20;;;9.13;;
10471;SDS011;5283;48.876;8.962;2023-08-06T03:21:15;11.30;;;8.73;;
10471;SDS011;5283;48.876;8.962;2023-08-06T03:23:41;11.33;;;9.17;;
10471;SDS011;5283;48.876;8.962;2023-08-06T03:26:08;12.33;;;8.83;;
10471;SDS011;5283;48.876;8.962;2023-08-06T03:28:35;13.07;;;8.77;;
10471;SDS011;5283;48.876;8.962;2023-08-06T03:31:02;11.47;;;9.07;;
10471;SDS011;5283;48.876;8.962;2023-08-06T03:33:29;13.63;;;8.50;;
10471;SDS011;5283;48.876;8.962;2023-08-06T03:35:56;12.07;;;8.53;;
10471;SDS011;5283;48.876;8.962;2023-08-06T03:38:23;9.87;;;8.47;;
10471;SDS011;5283;48.876;8.962;2023-08-06T03:40:50;12.37;;;8.77;;
10471;SDS011;5283;48.876;8.962;2023-08-06T03:43:17;12.20;;;8.20;;
10471;SDS011;5283;48.876;8.962;2023-08-06T03:45:43;10.10;;;7.90;;
10471;SDS011;5283;48.876;8.962;2023-08-06T03:48:10;11.13;;;8.00;;
10471;SDS011;5283;48.876;8.962;2023-08-06T03:50:37;11.93;;;7.70;;
10471;SDS011;5283;48.876;8.962;2023-08-06T03:53:04;11.17;;;7.43;;
10471;SDS011;5283;48.876;8.962;2023-08-06T03:55:30;12.67;;;8.27;;
10471;SDS011;5283;48.876;8.962;2023-08-06T03:57:57;12.83;;;8.20;;
10471;SDS011;5283;48.876;8.962;2023-08-06T04:00:24;9.63;;;7.87;;
10471;SDS011;5283;48.876;8.962;2023-08-06T04:02:50;11.40;;;7.73;;
10471;SDS011;5283;48.876;8.962;2023-08-06T04:05:17;9.40;;;7.87;;
10471;SDS011;5283;48.876;8.962;2023-08-06T04:07:44;10.20;;;7.33;;
10471;SDS011;5283;48.876;8.962;2023-08-06T04:10:10;10.10;;;7.43;;
10471;SDS011;5283;48.876;8.962;2023-08-06T04:12:37;10.70;;;7.07;;
10471;SDS011;5283;48.876;8.962;2023-08-06T04:15:05;9.60;;;7.37;;
10471;SDS011;5283;48.876;8.962;2023-08-06T04:17:32;8.57;;;7.03;;
10471;SDS011;5283;48.876;8.962;2023-08-06T04:19:59;8.60;;;7.00;;
10471;SDS011;5283;48.876;8.962;2023-08-06T04:22:26;9.93;;;7.03;;
10471;SDS011;5283;48.876;8.962;2023-08-06T04:24:53;8.17;;;6.53;;
10471;SDS011;5283;48.876;8.962;2023-08-06T04:27:20;14.57;;;7.20;;
10471;SDS011;5283;48.876;8.962;2023-08-06T04:29:46;10.50;;;6.43;;
10471;SDS011;5283;48.876;8.962;2023-08-06T04:32:13;10.93;;;7.27;;
10471;SDS011;5283;48.876;8.962;2023-08-06T04:34:40;14.20;;;6.20;;
10471;SDS011;5283;48.876;8.962;2023-08-06T04:37:07;9.37;;;7.20;;
10471;SDS011;5283;48.876;8.962;2023-08-06T04:39:33;11.20;;;7.20;;
10471;SDS011;5283;48.876;8.962;2023-08-06T04:42:00;10.20;;;7.13;;
10471;SDS011;5283;48.876;8.962;2023-08-06T04:44:27;11.60;;;6.70;;
10471;SDS011;5283;48.876;8.962;2023-08-06T04:46:53;8.77;;;6.40;;
10471;SDS011;5283;48.876;8.962;2023-08-06T04:49:20;10.53;;;6.17;;
10471;SDS011;5283;48.876;8.962;2023-08-06T04:51:47;7.83;;;5.53;;
10471;SDS011;5283;48.876;8.962;2023-08-06T04:54:14;7.03;;;5.70;;
10471;SDS011;5283;48.876;8.962;2023-08-06T04:56:41;7.43;;;5.20;;
10471;SDS011;5283;48.876;8.962;2023-08-06T04:59:07;7.57;;;5.37;;
10471;SDS011;5283;48.876;8.962;2023-08-06T05:01:34;6.40;;;5.23;;
10471;SDS011;5283;48.876;8.962;2023-08-06T05:04:01;8.00;;;5.50;;
10471;SDS011;5283;48.876;8.962;2023-08-06T05:06:28;8.43;;;5.20;;
10471;SDS011;5283;48.876;8.962;2023-08-06T05:08:54;4.57;;;4.17;;
10471;SDS011;5283;48.876;8.962;2023-08-06T05:11:21;7.43;;;3.53;;
10471;SDS011;5283;48.876;8.962;2023-08-06T05:13:48;2.97;;;2.40;;
10471;SDS011;5283;48.876;8.962;2023-08-06T05:16:14;2.13;;;1.87;;
10471;SDS011;5283;48.876;8.962;2023-08-06T05:18:41;1.50;;;1.40;;
10471;SDS011;5283;48.876;8.962;2023-08-06T05:21:08;2.30;;;1.33;;
10471;SDS011;5283;48.876;8.962;2023-08-06T05:23:35;1.90;;;1.10;;
10471;SDS011;5283;48.876;8.962;2023-08-06T05:26:01;1.40;;;1.30;;
10471;SDS011;5283;48.876;8.962;2023-08-06T05:28:28;1.80;;;1.10;;
10471;SDS011;5283;48.876;8.962;2023-08-06T05:30:55;1.20;;;1.10;;
10471;SDS011;5283;48.876;8.962;2023-08-06T05:33:21;3.03;;;1.37;;
10471;SDS011;5283;48.876;8.962;2023-08-06T05:35:49;1.33;;;1.00;;
10471;SDS011;5283;48.876;8.962;2023-08-06T05:38:16;1.47;;;1.03;;
10471;SDS011;5283;48.876;8.962;2023-08-06T05:40:43;0.97;;;0.90;;
10471;SDS011;5283;48.876;8.962;2023-08-06T05:43:10;2.87;;;0.90;;
10471;SDS011;5283;48.876;8.962;2023-08-06T05:45:37;1.60;;;0.93;;
10471;SDS011;5283;48.876;8.962;2023-08-06T05:48:04;0.60;;;0.60;;
10471;SDS011;5283;48.876;8.962;2023-08-06T05:50:30;0.60;;;0.60;;
10471;SDS011;5283;48.876;8.962;2023-08-06T05:52:57;1.53;;;0.90;;
10471;SDS011;5283;48.876;8.962;2023-08-06T05:55:25;2.60;;;0.70;;
10471;SDS011;5283;48.876;8.962;2023-08-06T05:57:52;1.67;;;0.90;;
10471;SDS011;5283;48.876;8.962;2023-08-06T06:00:19;1.03;;;0.73;;
10471;SDS011;5283;48.876;8.962;2023-08-06T06:02:46;0.77;;;0.77;;
10471;SDS011;5283;48.876;8.962;2023-08-06T06:05:13;2.47;;;0.60;;
10471;SDS011;5283;48.876;8.962;2023-08-06T06:07:39;2.70;;;0.83;;
10471;SDS011;5283;48.876;8.962;2023-08-06T06:10:06;1.00;;;0.93;;
10471;SDS011;5283;48.876;8.962;2023-08-06T06:12:33;1.83;;;0.90;;
10471;SDS011;5283;48.876;8.962;2023-08-06T06:15:00;1.90;;;0.80;;
10471;SDS011;5283;48.876;8.962;2023-08-06T06:17:27;1.50;;;0.87;;
10471;SDS011;5283;48.876;8.962;2023-08-06T06:19:55;2.03;;;0.80;;
10471;SDS011;5283;48.876;8.962;2023-08-06T06:22:21;0.60;;;0.60;;
10471;SDS011;5283;48.876;8.962;2023-08-06T06:24:48;1.97;;;0.80;;
10471;SDS011;5283;48.876;8.962;2023-08-06T06:27:15;2.10;;;0.93;;
10471;SDS011;5283;48.876;8.962;2023-08-06T06:29:41;2.80;;;1.00;;
10471;SDS011;5283;48.876;8.962;2023-08-06T06:32:08;1.80;;;0.70;;
10471;SDS011;5283;48.876;8.962;2023-08-06T06:34:35;1.77;;;0.93;;
10471;SDS011;5283;48.876;8.962;2023-08-06T06:37:02;1.60;;;0.90;;
10471;SDS011;5283;48.876;8.962;2023-08-06T06:39:28;0.70;;;0.60;;
10471;SDS011;5283;48.876;8.962;2023-08-06T06:41:55;0.70;;;0.70;;
10471;SDS011;5283;48.876;8.962;2023-08-06T06:44:22;0.83;;;0.70;;
10471;SDS011;5283;48.876;8.962;2023-08-06T06:46:49;1.27;;;0.90;;
10471;SDS011;5283;48.876;8.962;2023-08-06T06:49:15;1.53;;;0.67;;
10471;SDS011;5283;48.876;8.962;2023-08-06T06:51:42;3.57;;;0.60;;
10471;SDS011;5283;48.876;8.962;2023-08-06T06:54:09;0.80;;;0.80;;
10471;SDS011;5283;48.876;8.962;2023-08-06T06:56:35;2.33;;;0.87;;
10471;SDS011;5283;48.876;8.962;2023-08-06T06:59:02;1.90;;;0.67;;
10471;SDS011;5283;48.876;8.962;2023-08-06T07:01:29;0.80;;;0.60;;
10471;SDS011;5283;48.876;8.962;2023-08-06T07:03:55;0.63;;;0.50;;
10471;SDS011;5283;48.876;8.962;2023-08-06T07:06:23;0.73;;;0.50;;
10471;SDS011;5283;48.876;8.962;2023-08-06T07:08:50;1.57;;;0.67;;
10471;SDS011;5283;48.876;8.962;2023-08-06T07:11:16;2.33;;;0.60;;
10471;SDS011;5283;48.876;8.962;2023-08-06T07:13:43;2.23;;;0.50;;
10471;SDS011;5283;48.876;8.962;2023-08-06T07:16:10;0.83;;;0.53;;
10471;SDS011;5283;48.876;8.962;2023-08-06T07:18:36;0.40;;;0.40;;
10471;SDS011;5283;48.876;8.962;2023-08-06T07:21:03;0.80;;;0.40;;
10471;SDS011;5283;48.876;8.962;2023-08-06T07:23:30;0.40;;;0.30;;
10471;SDS011;5283;48.876;8.962;2023-08-06T07:25:57;0.23;;;0.23;;
10471;SDS011;5283;48.876;8.962;2023-08-06T07:28:23;0.70;;;0.23;;
10471;SDS011;5283;48.876;8.962;2023-08-06T07:30:50;0.87;;;0.40;;
10471;SDS011;5283;48.876;8.962;2023-08-06T07:33:17;1.00;;;0.40;;
10471;SDS011;5283;48.876;8.962;2023-08-06T07:35:44;1.73;;;0.33;;
10471;SDS011;5283;48.876;8.962;2023-08-06T07:38:11;0.70;;;0.40;;
10471;SDS011;5283;48.876;8.962;2023-08-06T07:40:38;0.20;;;0.20;;
10471;SDS011;5283;48.876;8.962;2023-08-06T07:43:05;0.13;;;0.10;;
10471;SDS011;5283;48.876;8.962;2023-08-06T07:45:32;0.30;;;0.27;;
10471;SDS011;5283;48.876;8.962;2023-08-06T07:48:00;0.10;;;0.10;;
10471;SDS011;5283;48.876;8.962;2023-08-06T07:50:27;2.97;;;0.30;;
10471;SDS011;5283;48.876;8.962;2023-08-06T07:52:53;0.73;;;0.20;;
10471;SDS011;5283;48.876;8.962;2023-08-06T07:55:20;0.57;;;0.10;;
10471;SDS011;5283;48.876;8.962;2023-08-06T07:57:47;0.10;;;0.00;;
10471;SDS011;5283;48.876;8.962;2023-08-06T08:00:13;0.63;;;0.20;;
10471;SDS011;5283;48.876;8.962;2023-08-06T08:02:40;0.00;;;0.00;;
10471;SDS011;5283;48.876;8.962;2023-08-06T08:05:07;0.70;;;0.20;;
10471;SDS011;5283;48.876;8.962;2023-08-06T08:07:34;1.03;;;0.20;;
10471;SDS011;5283;48.876;8.962;2023-08-06T08:10:01;0.00;;;0.00;;
10471;SDS011;5283;48.876;8.962;2023-08-06T08:12:27;0.20;;;0.20;;
10471;SDS011;5283;48.876;8.962;2023-08-06T08:14:54;0.10;;;0.10;;
10471;SDS011;5283;48.876;8.962;2023-08-06T08:17:21;0.27;;;0.20;;
10471;SDS011;5283;48.876;8.962;2023-08-06T08:19:47;0.07;;;0.07;;
10471;SDS011;5283;48.876;8.962;2023-08-06T08:22:14;1.23;;;0.00;;
10471;SDS011;5283;48.876;8.962;2023-08-06T08:24:41;0.10;;;0.00;;
10471;SDS011;5283;48.876;8.962;2023-08-06T08:27:08;0.10;;;0.10;;
10471;SDS011;5283;48.876;8.962;2023-08-06T08:29:35;0.10;;;0.10;;
10471;SDS011;5283;48.876;8.962;2023-08-06T08:32:01;0.10;;;0.10;;
10471;SDS011;5283;48.876;8.962;2023-08-06T08:34:28;0.23;;;0.20;;
10471;SDS011;5283;48.876;8.962;2023-08-06T08:36:55;0.23;;;0.10;;
10471;SDS011;5283;48.876;8.962;2023-08-06T08:39:21;0.00;;;0.00;;
10471;SDS011;5283;48.876;8.962;2023-08-06T08:41:48;0.10;;;0.10;;
10471;SDS011;5283;48.876;8.962;2023-08-06T08:44:15;0.00;;;0.00;;
10471;SDS011;5283;48.876;8.962;2023-08-06T08:46:44;0.37;;;0.10;;
10471;SDS011;5283;48.876;8.962;2023-08-06T08:49:11;0.50;;;0.10;;
10471;SDS011;5283;48.876;8.962;2023-08-06T08:51:38;1.40;;;0.10;;
10471;SDS011;5283;48.876;8.962;2023-08-06T08:54:04;1.13;;;0.10;;
10471;SDS011;5283;48.876;8.962;2023-08-06T08:56:34;0.10;;;0.10;;
10471;SDS011;5283;48.876;8.962;2023-08-06T08:59:01;0.30;;;0.20;;
10471;SDS011;5283;48.876;8.962;2023-08-06T09:01:28;0.63;;;0.13;;
10471;SDS011;5283;48.876;8.962;2023-08-06T09:03:55;0.00;;;0.00;;
10471;SDS011;5283;48.876;8.962;2023-08-06T09:06:24;0.10;;;0.10;;
10471;SDS011;5283;48.876;8.962;2023-08-06T09:08:56;0.10;;;0.10;;
10471;SDS011;5283;48.876;8.962;2023-08-06T09:11:47;0.00;;;0.00;;
10471;SDS011;5283;48.876;8.962;2023-08-06T09:14:15;0.10;;;0.10;;
10471;SDS011;5283;48.876;8.962;2023-08-06T09:16:43;0.10;;;0.10;;
10471;SDS011;5283;48.876;8.962;2023-08-06T09:19:13;0.00;;;0.00;;
10471;SDS011;5283;48.876;8.962;2023-08-06T09:21:42;0.03;;;0.03;;
10471;SDS011;5283;48.876;8.962;2023-08-06T09:24:09;1.73;;;0.10;;
10471;SDS011;5283;48.876;8.962;2023-08-06T09:26:43;0.37;;;0.10;;
10471;SDS011;5283;48.876;8.962;2023-08-06T09:29:10;0.10;;;0.10;;
10471;SDS011;5283;48.876;8.962;2023-08-06T09:31:50;0.83;;;0.00;;
10471;SDS011;5283;48.876;8.962;2023-08-06T09:34:19;0.20;;;0.10;;
10471;SDS011;5283;48.876;8.962;2023-08-06T09:36:49;0.30;;;0.10;;
10471;SDS011;5283;48.876;8.962;2023-08-06T09:39:29;0.30;;;0.20;;
10471;SDS011;5283;48.876;8.962;2023-08-06T09:41:57;1.07;;;0.10;;
10471;SDS011;5283;48.876;8.962;2023-08-06T09:44:26;0.10;;;0.10;;
10471;SDS011;5283;48.876;8.962;2023-08-06T09:46:54;0.17;;;0.10;;
10471;SDS011;5283;48.876;8.962;2023-08-06T09:49:26;0.10;;;0.10;;
10471;SDS011;5283;48.876;8.962;2023-08-06T09:51:53;0.47;;;0.20;;
10471;SDS011;5283;48.876;8.962;2023-08-06T09:54:24;0.77;;;0.40;;
10471;SDS011;5283;48.876;8.962;2023-08-06T09:56:53;0.17;;;0.17;;
10471;SDS011;5283;48.876;8.962;2023-08-06T09:59:21;1.67;;;0.13;;
10471;SDS011;5283;48.876;8.962;2023-08-06T10:01:48;0.00;;;0.00;;
10471;SDS011;5283;48.876;8.962;2023-08-06T10:04:15;0.43;;;0.10;;
10471;SDS011;5283;48.876;8.962;2023-08-06T10:06:48;0.20;;;0.10;;
10471;SDS011;5283;48.876;8.962;2023-08-06T10:09:15;0.10;;;0.10;;
10471;SDS011;5283;48.876;8.962;2023-08-06T10:11:42;0.30;;;0.10;;
10471;SDS011;5283;48.876;8.962;2023-08-06T10:14:11;0.10;;;0.10;;
10471;SDS011;5283;48.876;8.962;2023-08-06T10:16:41;0.37;;;0.17;;
10471;SDS011;5283;48.876;8.962;2023-08-06T10:19:09;0.00;;;0.00;;
10471;SDS011;5283;48.876;8.962;2023-08-06T10:21:38;0.10;;;0.10;;
10471;SDS011;5283;48.876;8.962;2023-08-06T10:24:08;0.00;;;0.00;;
10471;SDS011;5283;48.876;8.962;2023-08-06T10:26:37;0.10;;;0.10;;
10471;SDS011;5283;48.876;8.962;2023-08-06T10:32:05;0.10;;;0.10;;
10471;SDS011;5283;48.876;8.962;2023-08-06T10:37:22;1.70;;;0.20;;
10471;SDS011;5283;48.876;8.962;2023-08-06T10:39:50;0.40;;;0.20;;
10471;SDS011;5283;48.876;8.962;2023-08-06T10:42:36;0.23;;;0.20;;
10471;SDS011;5283;48.876;8.962;2023-08-06T10:45:16;2.07;;;0.30;;
10471;SDS011;5283;48.876;8.962;2023-08-06T10:47:44;2.80;;;0.40;;
10471;SDS011;5283;48.876;8.962;2023-08-06T10:50:12;0.60;;;0.47;;
10471;SDS011;5283;48.876;8.962;2023-08-06T10:52:44;0.40;;;0.40;;
10471;SDS011;5283;48.876;8.962;2023-08-06T10:55:11;0.50;;;0.50;;
10471;SDS011;5283;48.876;8.962;2023-08-06T10:57:38;0.87;;;0.60;;
10471;SDS011;5283;48.876;8.962;2023-08-06T11:00:06;0.83;;;0.50;;
10471;SDS011;5283;48.876;8.962;2023-08-06T11:02:40;0.40;;;0.40;;
10471;SDS011;5283;48.876;8.962;2023-08-06T11:05:07;0.87;;;0.50;;
10471;SDS011;5283;48.876;8.962;2023-08-06T11:07:35;0.77;;;0.60;;
10471;SDS011;5283;48.876;8.962;2023-08-06T11:10:07;0.87;;;0.63;;
10471;SDS011;5283;48.876;8.962;2023-08-06T11:12:35;0.40;;;0.40;;
10471;SDS011;5283;48.876;8.962;2023-08-06T11:15:03;0.73;;;0.53;;
10471;SDS011;5283;48.876;8.962;2023-08-06T11:17:31;1.00;;;0.80;;
10471;SDS011;5283;48.876;8.962;2023-08-06T11:19:59;0.70;;;0.70;;
10471;SDS011;5283;48.876;8.962;2023-08-06T11:22:26;1.47;;;0.97;;
10471;SDS011;5283;48.876;8.962;2023-08-06T11:24:53;0.93;;;0.83;;
10471;SDS011;5283;48.876;8.962;2023-08-06T11:27:20;0.87;;;0.80;;
10471;SDS011;5283;48.876;8.962;2023-08-06T11:29:47;2.00;;;1.10;;
10471;SDS011;5283;48.876;8.962;2023-08-06T11:32:14;1.30;;;1.00;;
10471;SDS011;5283;48.876;8.962;2023-08-06T11:34:42;0.80;;;0.80;;
10471;SDS011;5283;48.876;8.962;2023-08-06T11:37:09;1.27;;;0.80;;
10471;SDS011;5283;48.876;8.962;2023-08-06T11:39:37;1.40;;;1.30;;
10471;SDS011;5283;48.876;8.962;2023-08-06T11:42:05;1.53;;;1.30;;
10471;SDS011;5283;48.876;8.962;2023-08-06T11:44:34;1.47;;;1.37;;
10471;SDS011;5283;48.876;8.962;2023-08-06T11:47:02;4.13;;;1.63;;
10471;SDS011;5283;48.876;8.962;2023-08-06T11:49:41;2.57;;;1.83;;
10471;SDS011;5283;48.876;8.962;2023-08-06T11:52:14;2.63;;;2.00;;
10471;SDS011;5283;48.876;8.962;2023-08-06T11:54:41;2.13;;;1.70;;
10471;SDS011;5283;48.876;8.962;2023-08-06T11:57:08;4.07;;;2.10;;
10471;SDS011;5283;48.876;8.962;2023-08-06T11:59:37;2.63;;;2.00;;
10471;SDS011;5283;48.876;8.962;2023-08-06T12:02:06;2.20;;;2.00;;
10471;SDS011;5283;48.876;8.962;2023-08-06T12:07:36;2.57;;;2.23;;
10471;SDS011;5283;48.876;8.962;2023-08-06T12:10:04;2.20;;;2.10;;
10471;SDS011;5283;48.876;8.962;2023-08-06T12:12:31;4.33;;;2.30;;
10471;SDS011;5283;48.876;8.962;2023-08-06T12:14:58;2.27;;;2.07;;
10471;SDS011;5283;48.876;8.962;2023-08-06T12:17:25;2.93;;;1.77;;
10471;SDS011;5283;48.876;8.962;2023-08-06T12:19:52;2.20;;;2.00;;
10471;SDS011;5283;48.876;8.962;2023-08-06T12:22:19;2.27;;;1.80;;
10471;SDS011;5283;48.876;8.962;2023-08-06T12:24:47;3.43;;;1.93;;
10471;SDS011;5283;48.876;8.962;2023-08-06T12:27:14;5.73;;;2.00;;
10471;SDS011;5283;48.876;8.962;2023-08-06T12:29:46;1.80;;;1.70;;
10471;SDS011;5283;48.876;8.962;2023-08-06T12:32:14;2.23;;;1.60;;
10471;SDS011;5283;48.876;8.962;2023-08-06T12:34:41;2.13;;;1.50;;
10471;SDS011;5283;48.876;8.962;2023-08-06T12:37:16;2.03;;;1.73;;
10471;SDS011;5283;48.876;8.962;2023-08-06T12:39:43;2.00;;;1.20;;
10471;SDS011;5283;48.876;8.962;2023-08-06T12:42:09;2.57;;;1.50;;
10471;SDS011;5283;48.876;8.962;2023-08-06T12:44:36;1.30;;;1.10;;
10471;SDS011;5283;48.876;8.962;2023-08-06T12:47:03;2.80;;;1.33;;
10471;SDS011;5283;48.876;8.962;2023-08-06T12:49:30;1.23;;;1.13;;
10471;SDS011;5283;48.876;8.962;2023-08-06T12:51:57;1.63;;;1.30;;
10471;SDS011;5283;48.876;8.962;2023-08-06T12:54:26;4.33;;;1.30;;
10471;SDS011;5283;48.876;8.962;2023-08-06T12:56:53;1.97;;;1.23;;
10471;SDS011;5283;48.876;8.962;2023-08-06T12:59:20;5.90;;;1.70;;
10471;SDS011;5283;48.876;8.962;2023-08-06T13:01:47;4.27;;;1.30;;
10471;SDS011;5283;48.876;8.962;2023-08-06T13:04:14;1.63;;;1.00;;
10471;SDS011;5283;48.876;8.962;2023-08-06T13:06:46;3.10;;;1.57;;
10471;SDS011;5283;48.876;8.962;2023-08-06T13:09:12;2.10;;;1.10;;
10471;SDS011;5283;48.876;8.962;2023-08-06T13:11:39;1.50;;;1.30;;
10471;SDS011;5283;48.876;8.962;2023-08-06T13:14:07;2.30;;;1.53;;
10471;SDS011;5283;48.876;8.962;2023-08-06T13:16:35;1.80;;;1.10;;
10471;SDS011;5283;48.876;8.962;2023-08-06T13:19:03;1.50;;;0.83;;
10471;SDS011;5283;48.876;8.962;2023-08-06T13:21:34;2.00;;;0.90;;
10471;SDS011;5283;48.876;8.962;2023-08-06T13:24:07;0.57;;;0.50;;
10471;SDS011;5283;48.876;8.962;2023-08-06T13:26:34;0.73;;;0.70;;
10471;SDS011;5283;48.876;8.962;2023-08-06T13:29:02;0.77;;;0.60;;
10471;SDS011;5283;48.876;8.962;2023-08-06T13:31:29;1.63;;;0.60;;
10471;SDS011;5283;48.876;8.962;2023-08-06T13:33:56;3.13;;;0.90;;
10471;SDS011;5283;48.876;8.962;2023-08-06T13:36:24;1.20;;;0.60;;
10471;SDS011;5283;48.876;8.962;2023-08-06T13:38:52;3.03;;;0.60;;
10471;SDS011;5283;48.876;8.962;2023-08-06T13:41:19;0.87;;;0.77;;
10471;SDS011;5283;48.876;8.962;2023-08-06T13:43:46;0.53;;;0.53;;
10471;SDS011;5283;48.876;8.962;2023-08-06T13:46:13;0.30;;;0.30;;
10471;SDS011;5283;48.876;8.962;2023-08-06T13:48:42;0.93;;;0.70;;
10471;SDS011;5283;48.876;8.962;2023-08-06T13:51:10;0.70;;;0.70;;
10471;SDS011;5283;48.876;8.962;2023-08-06T13:53:38;1.63;;;0.90;;
10471;SDS011;5283;48.876;8.962;2023-08-06T13:56:05;1.30;;;0.70;;
10471;SDS011;5283;48.876;8.962;2023-08-06T13:58:33;0.80;;;0.67;;
10471;SDS011;5283;48.876;8.962;2023-08-06T14:01:00;0.60;;;0.60;;
10471;SDS011;5283;48.876;8.962;2023-08-06T14:03:27;0.60;;;0.60;;
10471;SDS011;5283;48.876;8.962;2023-08-06T14:05:53;1.13;;;0.63;;
10471;SDS011;5283;48.876;8.962;2023-08-06T14:08:23;0.77;;;0.77;;
10471;SDS011;5283;48.876;8.962;2023-08-06T14:10:53;0.70;;;0.70;;
10471;SDS011;5283;48.876;8.962;2023-08-06T14:13:23;0.70;;;0.70;;
10471;SDS011;5283;48.876;8.962;2023-08-06T14:15:50;1.10;;;0.80;;
10471;SDS011;5283;48.876;8.962;2023-08-06T14:18:17;2.10;;;0.70;;
10471;SDS011;5283;48.876;8.962;2023-08-06T14:20:43;1.63;;;0.87;;
10471;SDS011;5283;48.876;8.962;2023-08-06T14:23:10;1.43;;;0.97;;
10471;SDS011;5283;48.876;8.962;2023-08-06T14:25:38;0.70;;;0.70;;
10471;SDS011;5283;48.876;8.962;2023-08-06T14:28:05;0.90;;;0.90;;
10471;SDS011;5283;48.876;8.962;2023-08-06T14:30:33;0.97;;;0.80;;
10471;SDS011;5283;48.876;8.962;2023-08-06T14:33:00;2.17;;;0.83;;
10471;SDS011;5283;48.876;8.962;2023-08-06T14:35:34;1.20;;;1.00;;
10471;SDS011;5283;48.876;8.962;2023-08-06T14:38:01;1.90;;;0.90;;
10471;SDS011;5283;48.876;8.962;2023-08-06T14:40:29;0.83;;;0.73;;
10471;SDS011;5283;48.876;8.962;2023-08-06T14:43:00;0.83;;;0.60;;
10471;SDS011;5283;48.876;8.962;2023-08-06T14:45:28;1.27;;;0.80;;
10471;SDS011;5283;48.876;8.962;2023-08-06T14:47:55;0.70;;;0.50;;
10471;SDS011;5283;48.876;8.962;2023-08-06T14:50:22;1.93;;;0.87;;
10471;SDS011;5283;48.876;8.962;2023-08-06T14:52:49;1.33;;;0.70;;
10471;SDS011;5283;48.876;8.962;2023-08-06T14:55:25;0.70;;;0.70;;
10471;SDS011;5283;48.876;8.962;2023-08-06T14:57:52;0.70;;;0.70;;
10471;SDS011;5283;48.876;8.962;2023-08-06T15:00:19;0.70;;;0.43;;
10471;SDS011;5283;48.876;8.962;2023-08-06T15:02:46;0.93;;;0.50;;
10471;SDS011;5283;48.876;8.962;2023-08-06T15:05:13;1.13;;;0.40;;
10471;SDS011;5283;48.876;8.962;2023-08-06T15:07:40;2.30;;;0.70;;
10471;SDS011;5283;48.876;8.962;2023-08-06T15:10:07;1.23;;;0.90;;
10471;SDS011;5283;48.876;8.962;2023-08-06T15:12:45;0.87;;;0.40;;
10471;SDS011;5283;48.876;8.962;2023-08-06T15:15:12;1.53;;;0.70;;